Time;durP1;ratioP1;P1;durP2;ratioP2;P2;SDS_P1;SDS_P2;PMS_P1;PMS_P2;Temp;Humidity;BMP_temperature;BMP_pressure;BME280_temperature;BME280_humidity;BME280_pressure;Samples;Min_cycle;Max_cycle;Signal;HPM_P1;HPM_P2
2022/08/21 00:01:36;;;;;;;2.03;1.83;;;;;;;25.32;73.81;97494.41;5067562;28;20250;-31
2022/08/21 00:04:06;;;;;;;2.17;1.97;;;;;;;25.32;73.96;97494.41;5067271;28;20239;-31
2022/08/21 00:06:33;;;;;;;2.50;1.87;;;;;;;25.31;73.92;97497.84;5065409;28;20299;-31
2022/08/21 00:09:01;;;;;;;2.00;1.90;;;;;;;25.27;73.91;97489.22;5067535;28;20668;-30
2022/08/21 00:11:32;;;;;;;2.30;2.10;;;;;;;25.31;73.73;97500.41;5067876;28;20266;-31
2022/08/21 00:13:59;;;;;;;2.17;1.90;;;;;;;25.30;74.29;97491.81;5067501;28;20660;-31
2022/08/21 00:16:26;;;;;;;3.30;2.10;;;;;;;25.26;73.68;97492.63;5067095;28;20204;-31
2022/08/21 00:18:52;;;;;;;1.90;1.80;;;;;;;25.30;74.12;97489.25;5065176;28;20259;-31
2022/08/21 00:21:19;;;;;;;2.50;2.20;;;;;;;25.28;74.02;97484.94;5064028;28;20295;-31
2022/08/21 00:23:45;;;;;;;2.23;2.03;;;;;;;25.29;74.17;97490.09;5069220;28;20291;-31
2022/08/21 00:26:12;;;;;;;2.10;1.90;;;;;;;25.30;73.83;97488.38;5073903;28;20751;-31
2022/08/21 00:28:38;;;;;;;2.30;2.10;;;;;;;25.30;74.09;97489.25;5071812;28;20246;-31
2022/08/21 00:31:05;;;;;;;2.70;2.17;;;;;;;25.30;73.95;97483.22;5070834;28;20299;-31
2022/08/21 00:33:32;;;;;;;2.37;2.17;;;;;;;25.30;73.89;97478.97;5067118;28;20200;-31
2022/08/21 00:35:59;;;;;;;2.10;1.97;;;;;;;25.30;73.74;97478.97;5066639;28;20243;-31
2022/08/21 00:38:25;;;;;;;1.97;1.87;;;;;;;25.31;73.91;97472.13;5066403;28;20310;-31
2022/08/21 00:40:54;;;;;;;2.00;1.80;;;;;;;25.30;73.92;97481.53;5066064;28;20295;-31
2022/08/21 00:43:24;;;;;;;2.30;2.13;;;;;;;25.30;73.85;97472.94;5066834;28;20727;-31
2022/08/21 00:45:51;;;;;;;2.00;1.80;;;;;;;25.31;74.03;97477.25;5066409;28;20228;-31
2022/08/21 00:48:17;;;;;;;1.90;1.80;;;;;;;25.30;73.82;97465.22;5067040;28;20223;-31
2022/08/21 00:50:48;;;;;;;2.20;2.00;;;;;;;25.31;73.93;97474.69;5065162;28;20705;-31
2022/08/21 00:53:15;;;;;;;2.20;2.00;;;;;;;25.26;73.84;97461.75;5066739;28;20228;-31
2022/08/21 00:55:41;;;;;;;2.00;1.80;;;;;;;25.29;73.76;97461.81;5065217;28;20292;-31
2022/08/21 00:58:09;;;;;;;2.10;2.00;;;;;;;25.31;74.11;97472.13;5067482;28;20296;-31
2022/08/21 01:00:38;;;;;;;2.10;1.90;;;;;;;25.29;74.15;97471.22;5067432;28;20236;-31
2022/08/21 01:03:13;;;;;;;2.17;1.97;;;;;;;25.30;74.04;97475.50;5054142;28;20192;-31
2022/08/21 01:05:40;;;;;;;2.03;1.87;;;;;;;25.30;73.75;97471.25;5050166;28;20227;-30
2022/08/21 01:08:07;;;;;;;2.67;2.20;;;;;;;25.10;73.78;97434.97;5063663;28;20244;-31
2022/08/21 01:10:35;;;;;;;2.40;2.00;;;;;;;25.28;74.08;97465.19;5065456;28;20615;-30
2022/08/21 01:13:04;;;;;;;2.53;1.97;;;;;;;25.21;73.56;97452.22;5066169;28;20234;-31
2022/08/21 01:15:32;;;;;;;2.17;2.00;;;;;;;25.30;73.75;97472.94;5060224;28;20232;-31
2022/08/21 01:17:59;;;;;;;2.20;2.10;;;;;;;25.29;73.38;97464.38;5065418;28;20243;-31
2022/08/21 01:20:26;;;;;;;1.83;1.73;;;;;;;25.30;73.60;97470.38;5065570;28;20752;-31
2022/08/21 01:23:00;;;;;;;2.00;1.90;;;;;;;25.29;74.13;97461.81;5066599;28;20211;-31
2022/08/21 01:25:26;;;;;;;1.97;1.77;;;;;;;25.29;74.20;97461.81;5060741;28;20258;-31
2022/08/21 01:27:53;;;;;;;1.90;1.80;;;;;;;25.30;74.14;97462.66;5066742;28;20212;-31
2022/08/21 01:30:22;;;;;;;2.00;1.90;;;;;;;25.30;73.89;97457.50;5065470;28;20637;-31
2022/08/21 01:32:48;;;;;;;2.03;1.93;;;;;;;25.30;73.65;97453.22;5067038;28;20320;-31
2022/08/21 01:35:15;;;;;;;2.03;1.83;;;;;;;25.29;74.07;97456.66;5066537;28;20967;-31
2022/08/21 01:37:42;;;;;;;2.10;1.93;;;;;;;25.29;73.77;97443.78;5066727;28;20291;-30
2022/08/21 01:40:10;;;;;;;1.93;1.83;;;;;;;25.29;73.67;97454.09;5066422;28;20250;-31
2022/08/21 01:42:37;;;;;;;2.03;1.93;;;;;;;25.29;73.55;97455.78;5061636;28;20250;-31
2022/08/21 01:45:04;;;;;;;1.93;1.83;;;;;;;25.31;73.91;97454.09;5066548;28;20291;-32
2022/08/21 01:47:31;;;;;;;2.00;1.80;;;;;;;25.29;73.71;97450.63;5065756;28;20206;-31
2022/08/21 01:49:58;;;;;;;1.87;1.77;;;;;;;25.30;74.09;97452.34;5066400;28;20646;-31
2022/08/21 01:52:24;;;;;;;1.90;1.80;;;;;;;25.30;73.81;97460.94;5067812;28;20347;-30
2022/08/21 01:54:51;;;;;;;1.70;1.60;;;;;;;25.29;73.99;97459.22;5070506;28;20318;-31
2022/08/21 01:57:21;;;;;;;2.00;1.80;;;;;;;25.29;73.65;97459.22;5069526;28;20204;-31
2022/08/21 01:59:51;;;;;;;1.90;1.80;;;;;;;25.30;74.11;97462.66;5068228;28;20770;-31
2022/08/21 02:02:18;;;;;;;1.83;1.73;;;;;;;25.29;73.60;97459.22;5066874;28;20207;-31
2022/08/21 02:04:44;;;;;;;1.70;1.60;;;;;;;25.29;73.74;97469.53;5070036;28;20211;-30
2022/08/21 02:07:11;;;;;;;1.77;1.67;;;;;;;25.29;74.06;97461.81;5070256;28;20330;-31
2022/08/21 02:09:37;;;;;;;1.77;1.67;;;;;;;25.29;73.68;97472.09;5069630;28;20220;-30
2022/08/21 02:12:05;;;;;;;2.53;1.77;;;;;;;25.29;73.61;97463.50;5061644;28;20223;-31
2022/08/21 02:14:32;;;;;;;1.80;1.70;;;;;;;25.30;73.88;97452.34;5069334;28;20232;-31
2022/08/21 02:16:59;;;;;;;1.90;1.80;;;;;;;25.29;74.07;97456.66;5069786;28;20295;-31
2022/08/21 02:19:34;;;;;;;2.00;1.90;;;;;;;25.30;73.77;97449.78;5069255;28;20229;-31
2022/08/21 02:22:05;;;;;;;1.50;1.40;;;;;;;25.29;73.82;97446.38;5066777;28;20559;-31
2022/08/21 02:24:32;;;;;;;2.00;1.80;;;;;;;25.29;73.50;97448.94;5057488;28;20208;-31
2022/08/21 02:26:59;;;;;;;2.10;1.90;;;;;;;25.28;73.92;97444.63;5068958;28;20232;-31
2022/08/21 02:29:25;;;;;;;1.80;1.70;;;;;;;25.30;73.90;97447.22;5069141;28;20220;-31
2022/08/21 02:31:52;;;;;;;2.00;1.80;;;;;;;25.30;73.61;97447.22;5068988;28;20726;-31
2022/08/21 02:34:19;;;;;;;2.00;1.90;;;;;;;25.24;74.07;97439.41;5059114;28;20322;-31
2022/08/21 02:36:46;;;;;;;1.90;1.80;;;;;;;25.26;73.73;97440.31;5064088;28;20292;-30
2022/08/21 02:39:25;;;;;;;2.33;1.60;;;;;;;25.30;73.64;97448.09;5068878;28;20223;-31
2022/08/21 02:41:53;;;;;;;1.60;1.50;;;;;;;25.29;73.71;97440.34;5067666;28;20700;-31
2022/08/21 02:44:19;;;;;;;2.00;1.90;;;;;;;25.26;73.65;97432.59;5069057;28;20649;-30
2022/08/21 02:46:56;;;;;;;1.70;1.60;;;;;;;25.28;73.57;97439.47;5060777;28;20204;-31
2022/08/21 02:49:23;;;;;;;1.97;1.77;;;;;;;25.23;74.06;97435.13;5068626;28;20222;-30
2022/08/21 02:51:50;;;;;;;1.70;1.60;;;;;;;25.29;73.59;97442.91;5068638;28;20639;-30
2022/08/21 02:54:17;;;;;;;1.80;1.70;;;;;;;25.29;73.71;97455.78;5069202;28;20287;-31
2022/08/21 02:56:43;;;;;;;1.80;1.70;;;;;;;25.28;73.68;97439.47;5068729;28;20232;-31
2022/08/21 02:59:10;;;;;;;1.70;1.60;;;;;;;25.28;73.82;97443.78;5069064;28;20220;-31
2022/08/21 03:01:37;;;;;;;2.10;1.90;;;;;;;25.29;73.99;97442.91;5066417;28;20292;-31
2022/08/21 03:04:03;;;;;;;1.70;1.60;;;;;;;25.28;73.67;97433.50;5068055;28;20574;-30
2022/08/21 03:06:30;;;;;;;1.77;1.67;;;;;;;25.29;74.05;97442.91;5062092;28;20274;-31
2022/08/21 03:08:57;;;;;;;1.73;1.63;;;;;;;25.29;73.82;97445.50;5068922;28;20310;-31
2022/08/21 03:11:23;;;;;;;1.80;1.70;;;;;;;25.29;73.77;97442.91;5068823;28;20626;-31
2022/08/21 03:13:50;;;;;;;2.20;1.57;;;;;;;25.29;74.02;97450.63;5067820;28;20246;-30
2022/08/21 03:16:18;;;;;;;1.80;1.70;;;;;;;25.29;73.90;97440.34;5068266;28;20615;-30
2022/08/21 03:18:45;;;;;;;1.70;1.60;;;;;;;25.29;73.54;97440.34;5084149;22;20232;-25
2022/08/21 03:21:12;;;;;;;1.70;1.60;;;;;;;25.29;73.44;97445.50;5067938;28;20240;-24
2022/08/21 03:23:39;;;;;;;1.80;1.70;;;;;;;25.29;73.90;97442.91;5070407;28;20228;-25
2022/08/21 03:26:06;;;;;;;2.13;2.00;;;;;;;25.29;73.68;97448.94;5064822;28;20204;-25
2022/08/21 03:28:33;;;;;;;1.80;1.70;;;;;;;25.29;73.59;97453.22;5057481;28;20201;-25
2022/08/21 03:31:00;;;;;;;1.70;1.60;;;;;;;25.29;73.55;97453.22;5077069;28;20257;-25
2022/08/21 03:33:26;;;;;;;1.60;1.50;;;;;;;25.29;73.84;97461.81;5068287;28;20250;-24
2022/08/21 03:36:02;;;;;;;1.80;1.70;;;;;;;25.29;73.54;97453.22;5069877;28;20208;-25
2022/08/21 03:38:29;;;;;;;1.47;1.37;;;;;;;25.21;73.84;97442.81;5068621;28;20615;-25
2022/08/21 03:40:55;;;;;;;1.70;1.60;;;;;;;25.15;73.59;97429.88;5068277;28;20684;-25
2022/08/21 03:43:22;;;;;;;2.00;1.80;;;;;;;25.28;73.90;97451.50;5068564;28;20228;-25
2022/08/21 03:45:48;;;;;;;1.73;1.63;;;;;;;25.28;73.46;97456.63;5067564;28;20701;-25
2022/08/21 03:48:18;;;;;;;1.77;1.67;;;;;;;25.28;73.89;97466.94;5068472;28;20805;-25
2022/08/21 03:50:46;;;;;;;1.60;1.50;;;;;;;25.27;73.64;97458.34;5067837;28;20260;-25
2022/08/21 03:53:13;;;;;;;1.70;1.60;;;;;;;25.23;73.58;97447.97;5069446;28;20794;-25
2022/08/21 03:55:46;;;;;;;1.70;1.60;;;;;;;25.27;73.58;97466.06;5067622;28;20207;-30
2022/08/21 03:58:17;;;;;;;1.50;1.40;;;;;;;25.28;73.93;97469.50;5064073;28;20200;-25
2022/08/21 04:00:45;;;;;;;1.60;1.50;;;;;;;25.21;73.82;97455.69;5067782;28;20475;-25
2022/08/21 04:03:12;;;;;;;1.80;1.70;;;;;;;25.27;73.55;97465.19;5048549;28;20700;-25
2022/08/21 04:05:38;;;;;;;1.87;1.77;;;;;;;25.26;73.61;97464.34;5067315;28;20307;-24
2022/08/21 04:08:05;;;;;;;2.00;1.80;;;;;;;25.28;73.65;97464.34;5067514;28;20236;-25
2022/08/21 04:10:34;;;;;;;1.53;1.43;;;;;;;25.28;73.49;97466.94;5067512;28;20645;-25
2022/08/21 04:13:00;;;;;;;1.80;1.70;;;;;;;25.28;73.53;97472.06;5067592;28;20311;-25
2022/08/21 04:15:27;;;;;;;1.60;1.50;;;;;;;25.28;73.60;97477.22;5066912;28;20541;-25
2022/08/21 04:17:54;;;;;;;1.80;1.70;;;;;;;25.27;73.63;97481.50;5068210;28;20584;-25
2022/08/21 04:20:21;;;;;;;1.70;1.60;;;;;;;25.28;73.92;97482.38;5067636;28;20289;-25
2022/08/21 04:22:48;;;;;;;1.57;1.47;;;;;;;25.27;73.56;97484.06;5068080;28;20299;-25
2022/08/21 04:25:15;;;;;;;1.50;1.40;;;;;;;25.27;73.64;97473.78;5067729;28;20235;-25
2022/08/21 04:27:41;;;;;;;1.70;1.60;;;;;;;25.27;73.61;97486.63;5067666;28;20626;-25
2022/08/21 04:30:09;;;;;;;1.70;1.60;;;;;;;25.26;73.91;97479.78;5066729;28;20327;-25
2022/08/21 04:32:38;;;;;;;1.60;1.50;;;;;;;25.27;73.66;97489.22;5067347;28;20235;-24
2022/08/21 04:35:08;;;;;;;1.63;1.53;;;;;;;25.27;73.54;97489.22;5062060;28;20235;-25
2022/08/21 04:37:35;;;;;;;1.50;1.40;;;;;;;25.08;73.43;97462.34;5066871;28;20668;-25
2022/08/21 04:40:09;;;;;;;1.63;1.53;;;;;;;25.25;73.89;97488.31;5067568;28;20222;-25
2022/08/21 04:42:51;;;;;;;1.40;1.30;;;;;;;25.28;73.71;97495.22;5067083;28;20211;-25
2022/08/21 04:45:32;;;;;;;1.63;1.53;;;;;;;25.25;73.83;97490.03;5060213;28;20204;-25
2022/08/21 04:47:59;;;;;;;1.70;1.60;;;;;;;25.27;73.93;97493.47;5068058;28;20290;-24
2022/08/21 04:50:54;;;;;;;1.40;1.30;;;;;;;25.25;73.60;97496.03;5067486;28;20256;-25
2022/08/21 04:53:35;;;;;;;1.43;1.33;;;;;;;25.16;73.51;97484.75;5058182;28;20226;-25
2022/08/21 04:56:08;;;;;;;1.63;1.53;;;;;;;24.97;73.59;97456.22;5065147;28;20283;-25
2022/08/21 04:58:35;;;;;;;1.70;1.60;;;;;;;25.26;73.65;97508.06;5051338;28;20240;-25
2022/08/21 05:01:03;;;;;;;1.47;1.37;;;;;;;25.21;73.68;97501.97;5058915;28;20291;-25
2022/08/21 05:03:30;;;;;;;1.57;1.47;;;;;;;25.06;73.75;97494.91;5052729;28;20242;-25
2022/08/21 05:05:57;;;;;;;1.73;1.63;;;;;;;25.19;73.64;97495.09;5034457;28;20920;-25
2022/08/21 05:08:24;;;;;;;1.50;1.40;;;;;;;25.28;73.87;97511.50;5034268;28;20331;-27
2022/08/21 05:10:50;;;;;;;1.40;1.30;;;;;;;25.28;73.75;97519.22;5052361;28;20232;-25
2022/08/21 05:13:17;;;;;;;1.47;1.40;;;;;;;25.28;73.53;97536.38;5052542;28;20220;-25
2022/08/21 05:15:43;;;;;;;1.60;1.50;;;;;;;25.27;73.72;97508.91;5052701;28;20211;-25
2022/08/21 05:18:10;;;;;;;1.50;1.40;;;;;;;25.26;73.56;97515.78;5052175;28;20299;-25
2022/08/21 05:20:37;;;;;;;1.50;1.40;;;;;;;25.26;73.62;97513.22;5052409;28;20259;-25
2022/08/21 05:23:11;;;;;;;1.60;1.50;;;;;;;25.20;73.84;97495.13;5049799;28;20295;-24
2022/08/21 05:25:37;;;;;;;1.60;1.50;;;;;;;25.28;73.37;97503.78;5053425;28;20224;-25
2022/08/21 05:28:04;;;;;;;1.57;1.47;;;;;;;25.26;73.69;97496.91;5059673;28;20295;-25
2022/08/21 05:30:31;;;;;;;1.60;1.50;;;;;;;25.28;73.85;97497.81;5058139;28;20228;-25
2022/08/21 05:32:59;;;;;;;1.60;1.50;;;;;;;25.27;73.56;97502.06;5053805;28;20247;-25
2022/08/21 05:35:26;;;;;;;1.60;1.50;;;;;;;25.26;73.46;97499.47;5054609;28;20304;-25
2022/08/21 05:37:53;;;;;;;1.60;1.50;;;;;;;25.28;73.53;97515.81;5055699;28;20405;-25
2022/08/21 05:40:20;;;;;;;1.40;1.30;;;;;;;25.27;73.69;97517.50;5055453;28;20311;-25
2022/08/21 05:42:52;;;;;;;1.40;1.30;;;;;;;25.14;73.37;97498.44;5053232;28;20871;-25
2022/08/21 05:45:28;;;;;;;1.50;1.40;;;;;;;25.28;73.67;97518.38;5057219;28;20212;-25
2022/08/21 05:48:10;;;;;;;1.30;1.20;;;;;;;25.26;73.60;97520.94;5053393;28;20258;-26
2022/08/21 05:50:37;;;;;;;1.50;1.40;;;;;;;25.27;73.61;97522.66;5055861;28;20658;-25
2022/08/21 05:53:05;;;;;;;1.20;1.20;;;;;;;25.26;73.75;97522.63;5059244;28;20216;-25
2022/08/21 05:55:33;;;;;;;1.53;1.20;;;;;;;25.27;73.55;97521.78;5055798;28;20204;-25
2022/08/21 05:58:00;;;;;;;1.50;1.40;;;;;;;25.28;73.30;97523.53;5059093;28;20210;-25
2022/08/21 06:00:27;;;;;;;1.70;1.60;;;;;;;25.28;73.54;97531.25;5055583;28;20238;-25
2022/08/21 06:02:53;;;;;;;1.40;1.30;;;;;;;25.26;73.48;97523.50;5057752;28;20240;-25
2022/08/21 06:05:20;;;;;;;1.50;1.40;;;;;;;25.27;73.38;97527.78;5051893;28;20228;-25
2022/08/21 06:08:02;;;;;;;1.50;1.40;;;;;;;25.23;73.48;97515.75;5071927;28;20574;-25
2022/08/21 06:10:29;;;;;;;1.40;1.30;;;;;;;25.28;73.71;97531.25;5068129;28;20224;-25
2022/08/21 06:12:55;;;;;;;1.57;1.47;;;;;;;25.26;73.52;97526.06;5068260;28;20235;-25
2022/08/21 06:15:22;;;;;;;1.60;1.50;;;;;;;25.26;73.61;97525.19;5069569;28;21011;-25
2022/08/21 06:17:49;;;;;;;2.00;1.40;;;;;;;25.26;73.28;97535.50;5069633;28;20306;-25
2022/08/21 06:20:15;;;;;;;1.47;1.37;;;;;;;25.28;73.82;97533.81;5067806;28;20719;-25
2022/08/21 06:22:42;;;;;;;1.40;1.30;;;;;;;25.27;73.52;97538.09;5068479;28;20223;-25
2022/08/21 06:25:09;;;;;;;1.47;1.30;;;;;;;25.26;73.30;97532.91;5067885;28;20220;-25
2022/08/21 06:27:35;;;;;;;1.30;1.30;;;;;;;25.27;73.46;97534.63;5067903;28;20295;-24
2022/08/21 06:30:04;;;;;;;1.17;1.17;;;;;;;25.03;73.51;97494.88;5069691;28;20772;-25
2022/08/21 06:32:30;;;;;;;1.60;1.50;;;;;;;25.27;73.76;97538.09;5088187;28;20228;-25
2022/08/21 06:34:57;;;;;;;1.50;1.40;;;;;;;24.06;73.24;97329.69;5081771;28;20351;-24
2022/08/21 06:37:24;;;;;;;2.97;1.60;;;;;;;25.25;73.41;97539.75;5067603;28;20227;-25
2022/08/21 06:39:50;;;;;;;2.10;1.90;;;;;;;25.27;73.07;97535.50;5051419;28;20333;-25
2022/08/21 06:42:17;;;;;;;1.87;1.77;;;;;;;25.25;72.98;97533.78;5055694;28;20208;-25
2022/08/21 06:44:45;;;;;;;6.87;2.43;;;;;;;25.25;72.47;97534.63;5056096;28;20197;-26
2022/08/21 06:47:11;;;;;;;2.93;1.97;;;;;;;25.26;72.71;97535.50;5053838;28;21209;-25
2022/08/21 06:49:38;;;;;;;2.00;1.80;;;;;;;25.26;72.91;97538.94;5056542;28;20319;-25
2022/08/21 06:52:09;;;;;;;1.60;1.50;;;;;;;25.25;73.14;97536.34;5053381;28;20303;-24
2022/08/21 06:54:36;;;;;;;1.80;1.70;;;;;;;25.25;73.16;97526.06;5052274;28;20216;-25
2022/08/21 06:57:03;;;;;;;1.73;1.53;;;;;;;25.25;73.00;97526.06;5056355;28;20293;-25
2022/08/21 06:59:30;;;;;;;2.13;1.97;;;;;;;25.25;72.87;97520.91;5056568;28;20261;-25
2022/08/21 07:01:56;;;;;;;2.80;2.10;;;;;;;25.26;73.29;97527.78;5052237;28;20228;-25
2022/08/21 07:04:23;;;;;;;2.20;2.00;;;;;;;25.26;72.93;97520.06;5056314;28;20607;-25
2022/08/21 07:06:49;;;;;;;3.10;1.90;;;;;;;25.25;72.94;97526.91;5055179;28;20332;-25
2022/08/21 07:09:16;;;;;;;2.00;1.80;;;;;;;25.25;72.96;97523.47;5053485;28;20763;-25
2022/08/21 07:11:50;;;;;;;2.30;2.10;;;;;;;25.27;73.13;97521.78;5052908;28;20605;-25
2022/08/21 07:14:17;;;;;;;2.50;2.30;;;;;;;25.28;73.15;97533.81;5050502;28;20417;-25
2022/08/21 07:16:46;;;;;;;2.03;1.90;;;;;;;25.26;73.23;97523.50;5054796;28;20204;-25
2022/08/21 07:19:12;;;;;;;2.20;2.07;;;;;;;25.27;72.82;97519.19;5052089;28;20335;-27
2022/08/21 07:21:39;;;;;;;2.50;2.20;;;;;;;25.26;73.23;97523.50;5054095;28;20319;-25
2022/08/21 07:24:06;;;;;;;2.30;2.10;;;;;;;25.27;73.16;97521.78;5054788;28;20287;-25
2022/08/21 07:26:32;;;;;;;2.57;1.97;;;;;;;25.26;72.68;97522.63;5054035;28;20299;-25
2022/08/21 07:28:59;;;;;;;2.30;2.20;;;;;;;25.28;73.27;97523.53;5052422;28;20232;-25
2022/08/21 07:31:25;;;;;;;2.67;2.10;;;;;;;25.25;73.16;97524.31;5052644;28;20306;-26
2022/08/21 07:33:52;;;;;;;2.23;2.13;;;;;;;25.23;73.01;97513.16;5054318;28;20232;-25
2022/08/21 07:36:19;;;;;;;4.63;2.50;;;;;;;25.26;72.99;97525.19;5048169;28;20291;-25
2022/08/21 07:38:45;;;;;;;2.83;2.63;;;;;;;25.29;72.62;97520.09;5053252;28;20211;-25
2022/08/21 07:41:23;;;;;;;3.37;2.83;;;;;;;25.28;72.54;97526.09;5055312;28;20208;-24
2022/08/21 07:43:50;;;;;;;3.53;2.73;;;;;;;25.17;72.93;97513.91;5055574;28;20665;-25
2022/08/21 07:46:18;;;;;;;3.07;2.87;;;;;;;25.22;72.66;97520.88;5054075;28;20236;-25
2022/08/21 07:48:45;;;;;;;4.00;2.93;;;;;;;25.16;72.55;97505.34;5055915;28;20249;-27
2022/08/21 07:51:12;;;;;;;3.73;3.10;;;;;;;25.29;72.94;97526.13;5052390;28;20621;-25
2022/08/21 07:53:40;;;;;;;3.23;2.93;;;;;;;25.30;73.37;97532.09;5053447;28;20224;-25
2022/08/21 07:56:08;;;;;;;4.53;3.20;;;;;;;25.25;73.06;97526.91;5052926;28;20454;-28
2022/08/21 07:58:34;;;;;;;3.20;2.90;;;;;;;24.42;72.49;97381.63;5056530;28;21006;-25
2022/08/21 08:01:01;;;;;;;3.20;2.90;;;;;;;25.25;72.64;97520.91;5058546;28;20753;-24
2022/08/21 08:03:27;;;;;;;3.73;3.20;;;;;;;25.29;72.97;97531.25;5051714;28;20208;-24
2022/08/21 08:05:56;;;;;;;4.07;3.27;;;;;;;25.29;72.90;97528.69;5054647;28;20208;-25
2022/08/21 08:08:23;;;;;;;3.63;3.33;;;;;;;25.29;73.00;97531.25;5055379;28;20208;-25
2022/08/21 08:10:50;;;;;;;3.63;3.33;;;;;;;25.30;73.07;97529.53;5054006;28;20238;-27
2022/08/21 08:13:16;;;;;;;4.10;3.70;;;;;;;25.30;72.68;97537.25;5052995;28;20308;-25
2022/08/21 08:15:43;;;;;;;3.90;3.57;;;;;;;25.20;73.16;97519.97;5054608;28;20295;-25
2022/08/21 08:18:09;;;;;;;3.97;3.67;;;;;;;25.30;73.09;97535.56;5056352;28;20639;-24
2022/08/21 08:20:37;;;;;;;3.90;3.60;;;;;;;25.23;73.05;97520.88;5050910;28;20227;-25
2022/08/21 08:23:04;;;;;;;4.47;3.90;;;;;;;25.29;73.06;97530.38;5053186;28;20618;-25
2022/08/21 08:25:30;;;;;;;3.43;3.13;;;;;;;25.30;72.89;97532.09;5055124;28;20208;-25
2022/08/21 08:28:04;;;;;;;5.53;4.30;;;;;;;25.02;73.03;97482.84;5054236;28;20746;-25
2022/08/21 08:30:46;;;;;;;5.07;4.67;;;;;;;25.25;72.98;97526.06;5055815;28;20226;-25
2022/08/21 08:33:13;;;;;;;5.97;5.47;;;;;;;25.30;73.05;97529.53;5051897;28;20297;-25
2022/08/21 08:35:42;;;;;;;5.70;5.23;;;;;;;25.31;72.93;97542.41;5053339;28;20307;-26
2022/08/21 08:38:09;;;;;;;5.60;5.20;;;;;;;25.31;73.15;97537.28;5038094;28;20284;-25
2022/08/21 08:41:11;;;;;;;6.33;5.73;;;;;;;25.31;72.97;97536.44;5053032;28;20235;-25
2022/08/21 08:43:38;;;;;;;6.07;5.57;;;;;;;25.31;73.01;97537.28;5049101;28;20211;-25
2022/08/21 08:46:09;;;;;;;5.93;5.43;;;;;;;23.92;72.50;97289.22;5048466;28;20860;-26
2022/08/21 08:48:46;;;;;;;6.27;5.77;;;;;;;25.14;73.06;97506.16;5040225;28;20296;-24
2022/08/21 08:51:35;;;;;;;6.77;6.17;;;;;;;25.31;73.20;97533.88;5047212;28;20286;-25
2022/08/21 08:54:04;;;;;;;6.20;5.67;;;;;;;25.19;72.78;97520.81;5048957;28;20590;-25
2022/08/21 08:56:32;;;;;;;6.33;5.77;;;;;;;25.30;72.84;97530.41;5049819;28;20653;-25
2022/08/21 08:59:09;;;;;;;6.70;6.10;;;;;;;25.30;72.84;97532.97;5050034;28;20312;-25
2022/08/21 09:01:35;;;;;;;6.37;5.80;;;;;;;25.31;72.91;97536.44;5046628;28;20210;-25
2022/08/21 09:04:05;;;;;;;7.47;6.87;;;;;;;25.31;72.98;97529.56;5068820;28;20261;-25
2022/08/21 09:06:47;;;;;;;6.67;6.10;;;;;;;25.31;72.77;97531.28;5069975;28;20299;-25
2022/08/21 09:09:35;;;;;;;6.17;5.70;;;;;;;25.30;71.92;97524.38;5074661;28;20677;-25
2022/08/21 09:12:19;;;;;;;6.30;5.80;;;;;;;25.30;71.72;97527.84;5076011;28;20231;-25
2022/08/21 09:14:58;;;;;;;5.83;5.37;;;;;;;25.30;71.81;97530.41;5086575;28;20307;-25
2022/08/21 09:17:31;;;;;;;6.30;5.80;;;;;;;25.31;71.76;97536.44;5069943;28;20297;-25
2022/08/21 09:20:27;;;;;;;5.90;5.40;;;;;;;25.31;72.39;97536.44;5091806;22;20801;-32
2022/08/21 09:22:57;;;;;;;5.70;5.27;;;;;;;25.20;72.25;97514.81;5062457;28;20283;-31
2022/08/21 09:25:26;;;;;;;5.97;5.57;;;;;;;25.31;72.69;97531.28;5082215;28;20195;-32
2022/08/21 09:27:53;;;;;;;6.73;5.47;;;;;;;25.29;72.68;97523.56;5090948;28;20287;-31
2022/08/21 09:30:25;;;;;;;5.83;5.33;;;;;;;25.32;72.90;97535.56;5081428;28;20252;-32
2022/08/21 09:32:51;;;;;;;6.47;5.90;;;;;;;25.32;72.70;97533.91;5066605;28;20608;-31
2022/08/21 09:35:20;;;;;;;5.80;5.30;;;;;;;25.32;72.98;97528.78;5067715;28;20324;-32
2022/08/21 09:38:01;;;;;;;5.40;5.00;;;;;;;25.32;72.76;97531.34;5062222;28;20200;-32
2022/08/21 09:40:35;;;;;;;5.90;5.40;;;;;;;25.33;73.01;97534.75;5069562;28;20659;-31
2022/08/21 09:43:12;;;;;;;5.90;5.40;;;;;;;25.32;73.01;97525.28;5074222;28;20219;-31
2022/08/21 09:45:40;;;;;;;5.53;5.13;;;;;;;25.30;72.62;97512.41;5071745;28;20844;-31
2022/08/21 09:48:09;;;;;;;5.47;4.97;;;;;;;25.34;72.69;97521.06;5061338;28;20239;-31
2022/08/21 09:50:36;;;;;;;5.33;4.93;;;;;;;25.34;73.01;97521.06;5067705;28;20231;-32
2022/08/21 09:53:03;;;;;;;6.03;5.20;;;;;;;25.34;72.66;97515.94;5052891;28;20304;-32
2022/08/21 09:58:40;;;;;;;5.27;4.87;;;;;;;25.32;72.77;97504.72;5054921;28;20287;-31
2022/08/21 10:01:12;;;;;;;5.57;5.10;;;;;;;25.35;72.54;97510.81;5055723;28;20232;-32
2022/08/21 10:03:39;;;;;;;5.60;5.10;;;;;;;25.33;72.60;97502.19;5052480;28;20208;-31
2022/08/21 10:06:09;;;;;;;5.57;5.07;;;;;;;25.36;72.70;97509.06;5054942;28;20646;-31
2022/08/21 10:08:40;;;;;;;4.93;4.63;;;;;;;25.36;72.53;97503.94;5033242;28;20308;-31
2022/08/21 10:11:06;;;;;;;5.47;5.07;;;;;;;25.35;72.88;97500.50;5056092;28;20786;-32
2022/08/21 10:13:41;;;;;;;5.60;5.10;;;;;;;25.35;73.03;97503.09;5051835;28;20295;-31
2022/08/21 10:16:14;;;;;;;5.10;4.70;;;;;;;25.34;72.80;97493.63;5051704;28;20734;-31
2022/08/21 10:18:42;;;;;;;5.10;4.70;;;;;;;25.24;72.77;97472.84;5054281;28;20313;-31
2022/08/21 10:21:39;;;;;;;5.10;4.70;;;;;;;25.28;72.75;97482.38;5051408;28;20256;-31
2022/08/21 10:24:14;;;;;;;4.93;4.53;;;;;;;25.32;72.74;97486.69;5052277;28;20205;-31
2022/08/21 10:27:16;;;;;;;4.73;4.43;;;;;;;25.35;73.04;97492.78;5055764;28;20232;-31
2022/08/21 10:29:58;;;;;;;5.00;4.50;;;;;;;25.35;72.91;97486.78;5054414;28;20311;-32
2022/08/21 10:32:47;;;;;;;4.97;4.63;;;;;;;25.35;72.83;97489.34;5052167;28;20308;-32
2022/08/21 10:35:19;;;;;;;4.67;4.37;;;;;;;25.32;72.83;97481.56;5047856;28;20709;-31
2022/08/21 10:37:52;;;;;;;5.03;4.63;;;;;;;25.34;72.51;97485.91;5053762;28;20291;-31
2022/08/21 10:40:29;;;;;;;4.90;4.50;;;;;;;25.26;72.81;97466.03;5053015;28;20319;-32
2022/08/21 10:43:32;;;;;;;5.03;4.57;;;;;;;25.35;72.55;97486.78;5040371;28;20235;-32
2022/08/21 10:46:01;;;;;;;4.87;4.47;;;;;;;25.35;72.87;97479.94;5051571;28;20227;-32
2022/08/21 10:48:32;;;;;;;4.63;4.27;;;;;;;25.32;72.92;97476.41;5055120;28;20298;-32
2022/08/21 10:51:27;;;;;;;4.93;4.53;;;;;;;25.35;72.94;97479.94;5050834;28;20665;-31
2022/08/21 10:54:25;;;;;;;4.43;4.13;;;;;;;25.24;72.86;97457.41;5052627;28;20201;-31
2022/08/21 10:56:56;;;;;;;4.73;4.33;;;;;;;25.33;72.83;97462.72;5053203;28;20240;-31
2022/08/21 10:59:28;;;;;;;4.77;4.40;;;;;;;25.35;72.83;97468.75;5038171;28;20220;-31
2022/08/21 11:02:14;;;;;;;4.77;4.33;;;;;;;25.34;72.78;97462.75;5019236;28;20232;-32
2022/08/21 11:04:59;;;;;;;4.30;4.00;;;;;;;25.35;72.60;97461.91;5040221;28;20205;-32
2022/08/21 11:07:31;;;;;;;4.53;4.23;;;;;;;25.35;72.62;97459.34;5064005;28;20231;-32
2022/08/21 11:10:05;;;;;;;4.70;4.30;;;;;;;25.31;72.64;97447.22;5061900;28;20707;-31
2022/08/21 11:12:33;;;;;;;4.47;4.17;;;;;;;25.34;72.97;97451.59;5064306;28;20212;-31
2022/08/21 11:15:24;;;;;;;4.27;3.97;;;;;;;25.34;72.65;97451.59;5068444;28;20306;-31
2022/08/21 11:18:18;;;;;;;4.60;4.23;;;;;;;25.34;72.88;97451.59;5071904;28;20202;-32
2022/08/21 11:21:06;;;;;;;4.10;3.80;;;;;;;25.33;72.77;97448.16;5067672;28;20263;-31
2022/08/21 11:23:46;;;;;;;4.13;3.83;;;;;;;25.34;72.82;97449.03;5043947;28;20534;-31
2022/08/21 11:26:17;;;;;;;4.33;4.03;;;;;;;25.28;72.82;97436.91;5063002;28;20292;-31
2022/08/21 11:29:01;;;;;;;4.47;4.07;;;;;;;25.33;72.72;97445.59;5045742;28;20232;-31
2022/08/21 11:31:38;;;;;;;4.17;3.87;;;;;;;25.35;72.80;97448.19;5062317;28;20292;-31
2022/08/21 11:34:21;;;;;;;4.30;3.90;;;;;;;25.35;72.66;97445.59;5076430;28;20267;-31
2022/08/21 11:37:23;;;;;;;4.40;4.10;;;;;;;25.34;72.56;97434.44;5064347;28;20291;-32
2022/08/21 11:40:19;;;;;;;4.53;4.23;;;;;;;25.35;72.83;97441.34;5038133;28;20288;-31
2022/08/21 11:42:50;;;;;;;4.07;3.77;;;;;;;25.35;72.65;97437.88;5019625;28;20696;-31
2022/08/21 11:45:39;;;;;;;4.53;4.23;;;;;;;25.34;72.80;97439.59;5052994;28;20193;-31
2022/08/21 11:48:22;;;;;;;4.57;4.17;;;;;;;25.26;73.04;97414.59;5048979;28;20232;-31
2022/08/21 11:50:48;;;;;;;5.10;3.77;;;;;;;25.25;72.89;97411.13;5062859;28;20289;-31
2022/08/21 11:53:23;;;;;;;4.30;3.90;;;;;;;25.34;73.08;97426.72;5048468;28;20648;-31